sensor_id;sensor_type;location;lat;lon;timestamp;P1;durP1;ratioP1;P2;durP2;ratioP2
43883;SDS011;71973;52.018;5.810;2023-12-20T00:02:16;4.60;;;1.60;;
43883;SDS011;71973;52.018;5.810;2023-12-20T00:04:41;4.40;;;1.40;;
43883;SDS011;71973;52.018;5.810;2023-12-20T00:07:07;6.23;;;1.60;;
43883;SDS011;71973;52.018;5.810;2023-12-20T00:09:32;5.13;;;1.47;;
43883;SDS011;71973;52.018;5.810;2023-12-20T00:11:58;4.37;;;1.37;;
43883;SDS011;71973;52.018;5.810;2023-12-20T00:14:24;7.57;;;1.47;;
43883;SDS011;71973;52.018;5.810;2023-12-20T00:16:49;6.00;;;1.90;;
43883;SDS011;71973;52.018;5.810;2023-12-20T00:19:15;5.13;;;1.27;;
43883;SDS011;71973;52.018;5.810;2023-12-20T00:21:40;3.37;;;1.23;;
43883;SDS011;71973;52.018;5.810;2023-12-20T00:24:06;9.00;;;3.70;;
43883;SDS011;71973;52.018;5.810;2023-12-20T00:26:31;3.00;;;1.30;;
43883;SDS011;71973;52.018;5.810;2023-12-20T00:28:57;5.83;;;1.40;;
43883;SDS011;71973;52.018;5.810;2023-12-20T00:31:22;6.90;;;1.93;;
43883;SDS011;71973;52.018;5.810;2023-12-20T00:33:48;3.87;;;1.40;;
43883;SDS011;71973;52.018;5.810;2023-12-20T00:36:14;9.00;;;1.97;;
43883;SDS011;71973;52.018;5.810;2023-12-20T00:38:39;4.20;;;1.47;;
43883;SDS011;71973;52.018;5.810;2023-12-20T00:41:05;3.37;;;1.07;;
43883;SDS011;71973;52.018;5.810;2023-12-20T00:43:30;3.30;;;1.50;;
43883;SDS011;71973;52.018;5.810;2023-12-20T00:45:56;4.37;;;1.43;;
43883;SDS011;71973;52.018;5.810;2023-12-20T00:48:22;5.75;;;1.10;;
43883;SDS011;71973;52.018;5.810;2023-12-20T00:50:47;2.97;;;1.00;;
43883;SDS011;71973;52.018;5.810;2023-12-20T00:53:13;5.33;;;1.57;;
43883;SDS011;71973;52.018;5.810;2023-12-20T00:55:38;2.50;;;1.10;;
43883;SDS011;71973;52.018;5.810;2023-12-20T00:58:05;2.83;;;1.10;;
43883;SDS011;71973;52.018;5.810;2023-12-20T01:00:31;3.37;;;1.23;;
43883;SDS011;71973;52.018;5.810;2023-12-20T01:02:56;4.23;;;1.50;;
43883;SDS011;71973;52.018;5.810;2023-12-20T01:05:22;3.60;;;1.20;;
43883;SDS011;71973;52.018;5.810;2023-12-20T01:07:48;4.18;;;1.35;;
43883;SDS011;71973;52.018;5.810;2023-12-20T01:10:14;3.95;;;1.10;;
43883;SDS011;71973;52.018;5.810;2023-12-20T01:12:40;7.50;;;1.67;;
43883;SDS011;71973;52.018;5.810;2023-12-20T01:15:05;4.90;;;1.37;;
43883;SDS011;71973;52.018;5.810;2023-12-20T01:17:31;4.27;;;1.17;;
43883;SDS011;71973;52.018;5.810;2023-12-20T01:19:57;3.73;;;0.97;;
43883;SDS011;71973;52.018;5.810;2023-12-20T01:22:23;4.10;;;1.48;;
43883;SDS011;71973;52.018;5.810;2023-12-20T01:24:48;4.83;;;1.43;;
43883;SDS011;71973;52.018;5.810;2023-12-20T01:27:14;3.03;;;1.20;;
43883;SDS011;71973;52.018;5.810;2023-12-20T01:29:40;3.17;;;1.10;;
43883;SDS011;71973;52.018;5.810;2023-12-20T01:32:05;4.43;;;1.27;;
43883;SDS011;71973;52.018;5.810;2023-12-20T01:34:31;2.73;;;1.00;;
43883;SDS011;71973;52.018;5.810;2023-12-20T01:36:57;5.03;;;1.23;;
43883;SDS011;71973;52.018;5.810;2023-12-20T01:39:22;2.80;;;1.37;;
43883;SDS011;71973;52.018;5.810;2023-12-20T01:41:48;3.17;;;1.10;;
43883;SDS011;71973;52.018;5.810;2023-12-20T01:44:14;6.67;;;1.47;;
43883;SDS011;71973;52.018;5.810;2023-12-20T01:46:39;4.27;;;1.33;;
43883;SDS011;71973;52.018;5.810;2023-12-20T01:49:06;3.78;;;1.20;;
43883;SDS011;71973;52.018;5.810;2023-12-20T01:51:31;5.35;;;1.55;;
43883;SDS011;71973;52.018;5.810;2023-12-20T01:53:58;2.42;;;1.20;;
43883;SDS011;71973;52.018;5.810;2023-12-20T01:56:25;2.05;;;0.90;;
43883;SDS011;71973;52.018;5.810;2023-12-20T01:58:53;2.90;;;1.05;;
43883;SDS011;71973;52.018;5.810;2023-12-20T02:01:20;2.85;;;1.10;;
43883;SDS011;71973;52.018;5.810;2023-12-20T02:03:45;4.07;;;1.10;;
43883;SDS011;71973;52.018;5.810;2023-12-20T02:06:12;2.60;;;1.00;;
43883;SDS011;71973;52.018;5.810;2023-12-20T02:08:38;7.43;;;1.30;;
43883;SDS011;71973;52.018;5.810;2023-12-20T02:11:03;3.60;;;0.97;;
43883;SDS011;71973;52.018;5.810;2023-12-20T02:13:30;5.13;;;1.57;;
43883;SDS011;71973;52.018;5.810;2023-12-20T02:15:56;3.58;;;1.48;;
43883;SDS011;71973;52.018;5.810;2023-12-20T02:18:22;3.60;;;1.30;;
43883;SDS011;71973;52.018;5.810;2023-12-20T02:20:47;4.00;;;1.20;;
43883;SDS011;71973;52.018;5.810;2023-12-20T02:23:13;4.53;;;1.07;;
43883;SDS011;71973;52.018;5.810;2023-12-20T02:25:39;3.55;;;1.27;;
43883;SDS011;71973;52.018;5.810;2023-12-20T02:28:04;4.07;;;1.20;;
43883;SDS011;71973;52.018;5.810;2023-12-20T02:30:31;3.28;;;1.55;;
43883;SDS011;71973;52.018;5.810;2023-12-20T02:32:57;2.40;;;1.03;;
43883;SDS011;71973;52.018;5.810;2023-12-20T02:35:25;3.13;;;1.15;;
43883;SDS011;71973;52.018;5.810;2023-12-20T02:37:50;3.33;;;0.90;;
43883;SDS011;71973;52.018;5.810;2023-12-20T02:40:16;4.07;;;1.30;;
43883;SDS011;71973;52.018;5.810;2023-12-20T02:42:41;4.97;;;1.40;;
43883;SDS011;71973;52.018;5.810;2023-12-20T02:45:07;4.37;;;1.33;;
43883;SDS011;71973;52.018;5.810;2023-12-20T02:47:33;2.60;;;1.08;;
43883;SDS011;71973;52.018;5.810;2023-12-20T02:49:58;4.47;;;1.30;;
43883;SDS011;71973;52.018;5.810;2023-12-20T02:52:24;4.13;;;1.13;;
43883;SDS011;71973;52.018;5.810;2023-12-20T02:54:50;3.97;;;1.27;;
43883;SDS011;71973;52.018;5.810;2023-12-20T02:57:15;2.37;;;1.03;;
43883;SDS011;71973;52.018;5.810;2023-12-20T02:59:41;2.27;;;1.00;;
43883;SDS011;71973;52.018;5.810;2023-12-20T03:02:07;3.43;;;1.17;;
43883;SDS011;71973;52.018;5.810;2023-12-20T03:04:32;2.70;;;0.90;;
43883;SDS011;71973;52.018;5.810;2023-12-20T03:06:58;3.53;;;1.20;;
43883;SDS011;71973;52.018;5.810;2023-12-20T03:09:23;4.20;;;1.40;;
43883;SDS011;71973;52.018;5.810;2023-12-20T03:11:49;3.47;;;1.10;;
43883;SDS011;71973;52.018;5.810;2023-12-20T03:14:14;3.63;;;1.60;;
43883;SDS011;71973;52.018;5.810;2023-12-20T03:16:40;2.03;;;0.90;;
43883;SDS011;71973;52.018;5.810;2023-12-20T03:19:06;4.00;;;1.70;;
43883;SDS011;71973;52.018;5.810;2023-12-20T03:21:31;4.27;;;1.57;;
43883;SDS011;71973;52.018;5.810;2023-12-20T03:23:57;5.23;;;1.40;;
43883;SDS011;71973;52.018;5.810;2023-12-20T03:26:22;3.17;;;1.17;;
43883;SDS011;71973;52.018;5.810;2023-12-20T03:28:48;4.27;;;1.20;;
43883;SDS011;71973;52.018;5.810;2023-12-20T03:31:14;4.60;;;1.63;;
43883;SDS011;71973;52.018;5.810;2023-12-20T03:33:39;3.63;;;1.17;;
43883;SDS011;71973;52.018;5.810;2023-12-20T03:36:05;3.55;;;1.40;;
43883;SDS011;71973;52.018;5.810;2023-12-20T03:38:31;4.27;;;1.37;;
43883;SDS011;71973;52.018;5.810;2023-12-20T03:40:56;4.77;;;1.27;;
43883;SDS011;71973;52.018;5.810;2023-12-20T03:43:22;3.60;;;1.20;;
43883;SDS011;71973;52.018;5.810;2023-12-20T03:45:47;3.40;;;0.97;;
43883;SDS011;71973;52.018;5.810;2023-12-20T03:48:13;2.43;;;1.13;;
43883;SDS011;71973;52.018;5.810;2023-12-20T03:50:38;5.77;;;1.13;;
43883;SDS011;71973;52.018;5.810;2023-12-20T03:53:04;5.80;;;1.60;;
43883;SDS011;71973;52.018;5.810;2023-12-20T03:55:30;4.27;;;1.30;;
43883;SDS011;71973;52.018;5.810;2023-12-20T03:57:55;3.53;;;1.10;;
43883;SDS011;71973;52.018;5.810;2023-12-20T04:00:21;3.57;;;1.23;;
43883;SDS011;71973;52.018;5.810;2023-12-20T04:02:46;3.70;;;1.20;;
43883;SDS011;71973;52.018;5.810;2023-12-20T04:05:12;3.50;;;1.30;;
43883;SDS011;71973;52.018;5.810;2023-12-20T04:07:38;4.33;;;1.40;;
43883;SDS011;71973;52.018;5.810;2023-12-20T04:10:04;2.47;;;1.27;;
43883;SDS011;71973;52.018;5.810;2023-12-20T04:12:30;2.65;;;1.30;;
43883;SDS011;71973;52.018;5.810;2023-12-20T04:14:56;3.85;;;1.13;;
43883;SDS011;71973;52.018;5.810;2023-12-20T04:17:22;3.37;;;1.20;;
43883;SDS011;71973;52.018;5.810;2023-12-20T04:19:48;4.35;;;1.30;;
43883;SDS011;71973;52.018;5.810;2023-12-20T04:22:14;4.25;;;1.45;;
43883;SDS011;71973;52.018;5.810;2023-12-20T04:24:40;4.65;;;1.73;;
43883;SDS011;71973;52.018;5.810;2023-12-20T04:27:07;3.88;;;1.60;;
43883;SDS011;71973;52.018;5.810;2023-12-20T04:29:33;5.50;;;1.75;;
43883;SDS011;71973;52.018;5.810;2023-12-20T04:31:59;4.57;;;1.60;;
43883;SDS011;71973;52.018;5.810;2023-12-20T04:34:25;4.32;;;1.23;;
43883;SDS011;71973;52.018;5.810;2023-12-20T04:36:50;4.50;;;1.70;;
43883;SDS011;71973;52.018;5.810;2023-12-20T04:39:16;4.97;;;2.07;;
43883;SDS011;71973;52.018;5.810;2023-12-20T04:41:42;4.00;;;1.30;;
43883;SDS011;71973;52.018;5.810;2023-12-20T04:44:07;3.17;;;1.63;;
43883;SDS011;71973;52.018;5.810;2023-12-20T04:46:33;3.30;;;1.00;;
43883;SDS011;71973;52.018;5.810;2023-12-20T04:48:58;3.70;;;1.03;;
43883;SDS011;71973;52.018;5.810;2023-12-20T04:51:24;4.50;;;1.07;;
43883;SDS011;71973;52.018;5.810;2023-12-20T04:53:49;4.07;;;1.37;;
43883;SDS011;71973;52.018;5.810;2023-12-20T04:56:15;4.80;;;1.50;;
43883;SDS011;71973;52.018;5.810;2023-12-20T04:58:42;4.57;;;1.40;;
43883;SDS011;71973;52.018;5.810;2023-12-20T05:03:33;6.75;;;1.58;;
43883;SDS011;71973;52.018;5.810;2023-12-20T05:05:59;3.40;;;1.17;;
43883;SDS011;71973;52.018;5.810;2023-12-20T05:08:24;4.30;;;1.27;;
43883;SDS011;71973;52.018;5.810;2023-12-20T05:10:50;3.67;;;1.13;;
43883;SDS011;71973;52.018;5.810;2023-12-20T05:13:18;4.75;;;1.55;;
43883;SDS011;71973;52.018;5.810;2023-12-20T05:15:44;4.33;;;1.43;;
43883;SDS011;71973;52.018;5.810;2023-12-20T05:18:10;3.90;;;1.20;;
43883;SDS011;71973;52.018;5.810;2023-12-20T05:20:35;2.67;;;1.07;;
43883;SDS011;71973;52.018;5.810;2023-12-20T05:23:01;3.43;;;1.20;;
43883;SDS011;71973;52.018;5.810;2023-12-20T05:25:26;3.73;;;1.47;;
43883;SDS011;71973;52.018;5.810;2023-12-20T05:27:52;6.03;;;1.77;;
43883;SDS011;71973;52.018;5.810;2023-12-20T05:30:18;4.90;;;1.47;;
43883;SDS011;71973;52.018;5.810;2023-12-20T05:32:43;3.10;;;1.20;;
43883;SDS011;71973;52.018;5.810;2023-12-20T05:35:09;4.70;;;1.43;;
43883;SDS011;71973;52.018;5.810;2023-12-20T05:37:34;4.87;;;1.50;;
43883;SDS011;71973;52.018;5.810;2023-12-20T05:40:00;5.07;;;1.30;;
43883;SDS011;71973;52.018;5.810;2023-12-20T05:42:25;4.30;;;1.30;;
43883;SDS011;71973;52.018;5.810;2023-12-20T05:44:51;4.63;;;1.30;;
43883;SDS011;71973;52.018;5.810;2023-12-20T05:47:17;6.27;;;1.43;;
43883;SDS011;71973;52.018;5.810;2023-12-20T05:49:43;7.37;;;1.67;;
43883;SDS011;71973;52.018;5.810;2023-12-20T05:52:10;4.78;;;1.63;;
43883;SDS011;71973;52.018;5.810;2023-12-20T05:54:36;5.80;;;1.60;;
43883;SDS011;71973;52.018;5.810;2023-12-20T05:57:01;3.63;;;1.23;;
43883;SDS011;71973;52.018;5.810;2023-12-20T05:59:27;3.50;;;1.43;;
43883;SDS011;71973;52.018;5.810;2023-12-20T06:01:52;3.10;;;1.30;;
43883;SDS011;71973;52.018;5.810;2023-12-20T06:04:18;5.82;;;1.63;;
43883;SDS011;71973;52.018;5.810;2023-12-20T06:06:44;5.07;;;1.67;;
43883;SDS011;71973;52.018;5.810;2023-12-20T06:09:10;4.20;;;1.30;;
43883;SDS011;71973;52.018;5.810;2023-12-20T06:11:35;4.78;;;1.48;;
43883;SDS011;71973;52.018;5.810;2023-12-20T06:14:01;5.57;;;1.70;;
43883;SDS011;71973;52.018;5.810;2023-12-20T06:16:27;4.43;;;1.30;;
43883;SDS011;71973;52.018;5.810;2023-12-20T06:18:52;5.07;;;1.40;;
43883;SDS011;71973;52.018;5.810;2023-12-20T06:21:18;3.20;;;1.13;;
43883;SDS011;71973;52.018;5.810;2023-12-20T06:23:44;4.00;;;1.57;;
43883;SDS011;71973;52.018;5.810;2023-12-20T06:26:09;5.50;;;1.40;;
43883;SDS011;71973;52.018;5.810;2023-12-20T06:28:35;4.83;;;1.30;;
43883;SDS011;71973;52.018;5.810;2023-12-20T06:31:00;4.70;;;1.40;;
43883;SDS011;71973;52.018;5.810;2023-12-20T06:33:26;6.00;;;1.63;;
43883;SDS011;71973;52.018;5.810;2023-12-20T06:35:52;5.43;;;1.80;;
43883;SDS011;71973;52.018;5.810;2023-12-20T06:38:17;4.53;;;1.63;;
43883;SDS011;71973;52.018;5.810;2023-12-20T06:40:44;5.85;;;1.65;;
43883;SDS011;71973;52.018;5.810;2023-12-20T06:43:10;4.85;;;1.27;;
43883;SDS011;71973;52.018;5.810;2023-12-20T06:45:36;3.25;;;1.23;;
43883;SDS011;71973;52.018;5.810;2023-12-20T06:48:02;3.93;;;1.50;;
43883;SDS011;71973;52.018;5.810;2023-12-20T06:50:28;3.38;;;1.42;;
43883;SDS011;71973;52.018;5.810;2023-12-20T06:52:53;5.07;;;1.80;;
43883;SDS011;71973;52.018;5.810;2023-12-20T06:55:19;3.17;;;1.40;;
43883;SDS011;71973;52.018;5.810;2023-12-20T06:57:45;3.73;;;1.50;;
43883;SDS011;71973;52.018;5.810;2023-12-20T07:00:10;3.77;;;1.43;;
43883;SDS011;71973;52.018;5.810;2023-12-20T07:02:36;5.57;;;1.48;;
43883;SDS011;71973;52.018;5.810;2023-12-20T07:05:02;4.53;;;1.10;;
43883;SDS011;71973;52.018;5.810;2023-12-20T07:07:29;5.35;;;1.80;;
43883;SDS011;71973;52.018;5.810;2023-12-20T07:09:54;6.07;;;1.60;;
43883;SDS011;71973;52.018;5.810;2023-12-20T07:12:20;4.93;;;1.50;;
43883;SDS011;71973;52.018;5.810;2023-12-20T07:14:46;5.83;;;1.67;;
43883;SDS011;71973;52.018;5.810;2023-12-20T07:17:12;6.15;;;1.92;;
43883;SDS011;71973;52.018;5.810;2023-12-20T07:19:39;7.82;;;2.42;;
43883;SDS011;71973;52.018;5.810;2023-12-20T07:22:05;6.30;;;2.00;;
43883;SDS011;71973;52.018;5.810;2023-12-20T07:24:32;3.17;;;1.00;;
43883;SDS011;71973;52.018;5.810;2023-12-20T07:26:59;11.23;;;2.05;;
43883;SDS011;71973;52.018;5.810;2023-12-20T07:29:28;6.97;;;2.08;;
43883;SDS011;71973;52.018;5.810;2023-12-20T07:31:53;5.63;;;1.77;;
43883;SDS011;71973;52.018;5.810;2023-12-20T07:34:22;11.27;;;2.27;;
43883;SDS011;71973;52.018;5.810;2023-12-20T07:36:47;6.50;;;1.50;;
43883;SDS011;71973;52.018;5.810;2023-12-20T07:39:13;8.10;;;2.17;;
43883;SDS011;71973;52.018;5.810;2023-12-20T07:41:39;5.72;;;1.60;;
43883;SDS011;71973;52.018;5.810;2023-12-20T07:44:06;5.83;;;1.67;;
43883;SDS011;71973;52.018;5.810;2023-12-20T07:46:31;5.47;;;1.77;;
43883;SDS011;71973;52.018;5.810;2023-12-20T07:48:57;6.33;;;1.80;;
43883;SDS011;71973;52.018;5.810;2023-12-20T07:51:22;6.37;;;1.70;;
43883;SDS011;71973;52.018;5.810;2023-12-20T07:53:48;7.10;;;1.53;;
43883;SDS011;71973;52.018;5.810;2023-12-20T07:56:14;5.80;;;1.80;;
43883;SDS011;71973;52.018;5.810;2023-12-20T07:58:40;4.30;;;1.55;;
43883;SDS011;71973;52.018;5.810;2023-12-20T08:01:06;5.70;;;1.47;;
43883;SDS011;71973;52.018;5.810;2023-12-20T08:03:32;5.67;;;1.83;;
43883;SDS011;71973;52.018;5.810;2023-12-20T08:05:57;7.87;;;2.80;;
43883;SDS011;71973;52.018;5.810;2023-12-20T08:08:24;2.97;;;1.42;;
43883;SDS011;71973;52.018;5.810;2023-12-20T08:10:50;5.60;;;1.40;;
43883;SDS011;71973;52.018;5.810;2023-12-20T08:13:15;6.33;;;1.70;;
43883;SDS011;71973;52.018;5.810;2023-12-20T08:15:41;7.03;;;1.83;;
43883;SDS011;71973;52.018;5.810;2023-12-20T08:18:07;4.05;;;1.80;;
43883;SDS011;71973;52.018;5.810;2023-12-20T08:20:32;4.23;;;1.30;;
43883;SDS011;71973;52.018;5.810;2023-12-20T08:22:58;4.33;;;1.50;;
43883;SDS011;71973;52.018;5.810;2023-12-20T08:25:24;7.17;;;1.50;;
43883;SDS011;71973;52.018;5.810;2023-12-20T08:27:49;6.10;;;2.00;;
43883;SDS011;71973;52.018;5.810;2023-12-20T08:30:15;7.00;;;2.00;;
43883;SDS011;71973;52.018;5.810;2023-12-20T08:32:42;8.35;;;2.05;;
43883;SDS011;71973;52.018;5.810;2023-12-20T08:35:08;4.87;;;1.57;;
43883;SDS011;71973;52.018;5.810;2023-12-20T08:37:34;3.80;;;1.60;;
43883;SDS011;71973;52.018;5.810;2023-12-20T08:40:00;5.13;;;1.60;;
43883;SDS011;71973;52.018;5.810;2023-12-20T08:42:26;6.67;;;2.13;;
43883;SDS011;71973;52.018;5.810;2023-12-20T08:44:56;6.32;;;2.42;;
43883;SDS011;71973;52.018;5.810;2023-12-20T08:47:23;5.25;;;1.77;;
43883;SDS011;71973;52.018;5.810;2023-12-20T08:49:48;5.17;;;1.93;;
43883;SDS011;71973;52.018;5.810;2023-12-20T08:52:14;7.37;;;1.93;;
43883;SDS011;71973;52.018;5.810;2023-12-20T08:54:39;6.03;;;1.93;;
43883;SDS011;71973;52.018;5.810;2023-12-20T08:57:05;5.00;;;1.90;;
43883;SDS011;71973;52.018;5.810;2023-12-20T08:59:31;4.90;;;2.03;;
43883;SDS011;71973;52.018;5.810;2023-12-20T09:01:57;4.30;;;1.53;;
43883;SDS011;71973;52.018;5.810;2023-12-20T09:04:23;7.73;;;2.67;;
43883;SDS011;71973;52.018;5.810;2023-12-20T09:06:48;5.40;;;2.00;;
43883;SDS011;71973;52.018;5.810;2023-12-20T09:09:14;7.17;;;1.73;;
43883;SDS011;71973;52.018;5.810;2023-12-20T09:11:40;11.13;;;2.43;;
43883;SDS011;71973;52.018;5.810;2023-12-20T09:14:06;7.35;;;1.88;;
43883;SDS011;71973;52.018;5.810;2023-12-20T09:16:32;4.13;;;1.60;;
43883;SDS011;71973;52.018;5.810;2023-12-20T09:18:58;5.37;;;2.00;;
43883;SDS011;71973;52.018;5.810;2023-12-20T09:21:23;5.93;;;1.57;;
43883;SDS011;71973;52.018;5.810;2023-12-20T09:23:49;7.33;;;2.10;;
43883;SDS011;71973;52.018;5.810;2023-12-20T09:26:14;5.43;;;1.40;;
43883;SDS011;71973;52.018;5.810;2023-12-20T09:28:40;6.17;;;2.00;;
43883;SDS011;71973;52.018;5.810;2023-12-20T09:31:06;5.53;;;2.27;;
43883;SDS011;71973;52.018;5.810;2023-12-20T09:33:32;9.20;;;2.08;;
43883;SDS011;71973;52.018;5.810;2023-12-20T09:35:58;5.38;;;2.05;;
43883;SDS011;71973;52.018;5.810;2023-12-20T09:38:23;5.47;;;1.93;;
43883;SDS011;71973;52.018;5.810;2023-12-20T09:40:49;5.60;;;1.63;;
43883;SDS011;71973;52.018;5.810;2023-12-20T09:43:15;8.18;;;2.50;;
43883;SDS011;71973;52.018;5.810;2023-12-20T09:45:46;6.82;;;2.40;;
43883;SDS011;71973;52.018;5.810;2023-12-20T09:48:12;5.93;;;1.75;;
43883;SDS011;71973;52.018;5.810;2023-12-20T09:50:39;5.30;;;2.08;;
43883;SDS011;71973;52.018;5.810;2023-12-20T09:53:05;5.88;;;1.70;;
43883;SDS011;71973;52.018;5.810;2023-12-20T09:55:34;7.20;;;1.83;;
43883;SDS011;71973;52.018;5.810;2023-12-20T09:58:01;5.30;;;2.03;;
43883;SDS011;71973;52.018;5.810;2023-12-20T10:00:26;6.87;;;1.63;;
43883;SDS011;71973;52.018;5.810;2023-12-20T10:02:59;6.50;;;1.87;;
43883;SDS011;71973;52.018;5.810;2023-12-20T10:05:26;6.38;;;2.00;;
43883;SDS011;71973;52.018;5.810;2023-12-20T10:08:01;6.32;;;1.77;;
43883;SDS011;71973;52.018;5.810;2023-12-20T10:10:27;4.65;;;1.50;;
43883;SDS011;71973;52.018;5.810;2023-12-20T10:13:09;6.67;;;2.00;;
43883;SDS011;71973;52.018;5.810;2023-12-20T10:15:36;6.95;;;2.35;;
43883;SDS011;71973;52.018;5.810;2023-12-20T10:20:29;6.35;;;2.30;;
43883;SDS011;71973;52.018;5.810;2023-12-20T10:22:56;5.63;;;2.10;;
43883;SDS011;71973;52.018;5.810;2023-12-20T10:25:23;6.82;;;2.20;;
43883;SDS011;71973;52.018;5.810;2023-12-20T10:30:15;5.38;;;2.08;;
43883;SDS011;71973;52.018;5.810;2023-12-20T10:32:41;7.07;;;2.03;;
43883;SDS011;71973;52.018;5.810;2023-12-20T10:35:08;7.70;;;2.10;;
43883;SDS011;71973;52.018;5.810;2023-12-20T10:37:37;6.45;;;1.73;;
43883;SDS011;71973;52.018;5.810;2023-12-20T10:40:04;6.07;;;1.92;;
43883;SDS011;71973;52.018;5.810;2023-12-20T10:42:31;4.78;;;1.88;;
43883;SDS011;71973;52.018;5.810;2023-12-20T10:44:58;6.50;;;2.17;;
43883;SDS011;71973;52.018;5.810;2023-12-20T10:47:25;5.88;;;1.70;;
43883;SDS011;71973;52.018;5.810;2023-12-20T10:49:52;6.22;;;2.17;;
43883;SDS011;71973;52.018;5.810;2023-12-20T10:54:45;6.10;;;2.17;;
43883;SDS011;71973;52.018;5.810;2023-12-20T10:57:11;6.25;;;2.10;;
43883;SDS011;71973;52.018;5.810;2023-12-20T10:59:37;5.43;;;1.88;;
43883;SDS011;71973;52.018;5.810;2023-12-20T11:02:04;4.20;;;1.48;;
43883;SDS011;71973;52.018;5.810;2023-12-20T11:04:39;5.25;;;1.80;;
43883;SDS011;71973;52.018;5.810;2023-12-20T11:07:50;7.72;;;2.00;;
43883;SDS011;71973;52.018;5.810;2023-12-20T11:09:59;5.22;;;1.65;;
43883;SDS011;71973;52.018;5.810;2023-12-20T11:12:47;5.43;;;2.17;;
43883;SDS011;71973;52.018;5.810;2023-12-20T11:15:18;3.95;;;1.60;;
43883;SDS011;71973;52.018;5.810;2023-12-20T11:17:44;5.43;;;1.88;;
43883;SDS011;71973;52.018;5.810;2023-12-20T11:20:13;5.38;;;1.77;;
43883;SDS011;71973;52.018;5.810;2023-12-20T11:22:39;3.78;;;1.40;;
43883;SDS011;71973;52.018;5.810;2023-12-20T11:25:16;5.78;;;1.55;;
43883;SDS011;71973;52.018;5.810;2023-12-20T11:27:42;5.43;;;1.83;;
43883;SDS011;71973;52.018;5.810;2023-12-20T11:30:08;4.32;;;1.75;;
43883;SDS011;71973;52.018;5.810;2023-12-20T11:32:35;6.88;;;1.80;;
43883;SDS011;71973;52.018;5.810;2023-12-20T11:35:16;4.25;;;1.42;;
43883;SDS011;71973;52.018;5.810;2023-12-20T11:37:44;9.07;;;1.83;;
43883;SDS011;71973;52.018;5.810;2023-12-20T11:40:16;5.20;;;1.77;;
43883;SDS011;71973;52.018;5.810;2023-12-20T11:42:44;6.30;;;1.90;;
43883;SDS011;71973;52.018;5.810;2023-12-20T11:45:13;7.68;;;2.20;;
43883;SDS011;71973;52.018;5.810;2023-12-20T11:47:50;4.65;;;1.63;;
43883;SDS011;71973;52.018;5.810;2023-12-20T11:50:19;5.72;;;1.80;;
43883;SDS011;71973;52.018;5.810;2023-12-20T11:52:46;5.70;;;2.08;;
43883;SDS011;71973;52.018;5.810;2023-12-20T11:55:12;7.30;;;1.80;;
43883;SDS011;71973;52.018;5.810;2023-12-20T11:57:38;6.45;;;2.17;;
43883;SDS011;71973;52.018;5.810;2023-12-20T12:00:04;5.23;;;1.83;;
43883;SDS011;71973;52.018;5.810;2023-12-20T12:02:31;6.30;;;2.47;;
43883;SDS011;71973;52.018;5.810;2023-12-20T12:04:57;7.33;;;2.20;;
43883;SDS011;71973;52.018;5.810;2023-12-20T12:07:23;9.07;;;2.85;;
43883;SDS011;71973;52.018;5.810;2023-12-20T12:09:49;8.43;;;2.35;;
43883;SDS011;71973;52.018;5.810;2023-12-20T12:12:15;9.67;;;3.47;;
43883;SDS011;71973;52.018;5.810;2023-12-20T12:14:41;9.95;;;3.13;;
43883;SDS011;71973;52.018;5.810;2023-12-20T12:17:13;7.70;;;3.13;;
43883;SDS011;71973;52.018;5.810;2023-12-20T12:19:42;7.18;;;2.92;;
43883;SDS011;71973;52.018;5.810;2023-12-20T12:22:09;9.52;;;2.80;;
43883;SDS011;71973;52.018;5.810;2023-12-20T12:24:39;7.35;;;2.67;;
43883;SDS011;71973;52.018;5.810;2023-12-20T12:27:08;6.55;;;2.40;;
43883;SDS011;71973;52.018;5.810;2023-12-20T12:29:34;7.90;;;3.00;;
43883;SDS011;71973;52.018;5.810;2023-12-20T12:32:00;7.90;;;2.47;;
43883;SDS011;71973;52.018;5.810;2023-12-20T12:34:29;8.32;;;2.88;;
43883;SDS011;71973;52.018;5.810;2023-12-20T12:36:56;9.38;;;2.53;;
43883;SDS011;71973;52.018;5.810;2023-12-20T12:39:23;8.30;;;2.40;;
43883;SDS011;71973;52.018;5.810;2023-12-20T12:41:52;6.43;;;2.75;;
43883;SDS011;71973;52.018;5.810;2023-12-20T12:44:18;6.50;;;2.58;;
43883;SDS011;71973;52.018;5.810;2023-12-20T12:46:45;7.40;;;2.65;;
43883;SDS011;71973;52.018;5.810;2023-12-20T12:49:11;7.00;;;2.25;;
43883;SDS011;71973;52.018;5.810;2023-12-20T12:51:37;5.67;;;1.97;;
43883;SDS011;71973;52.018;5.810;2023-12-20T12:54:02;5.63;;;1.90;;
43883;SDS011;71973;52.018;5.810;2023-12-20T12:56:28;6.68;;;2.10;;
43883;SDS011;71973;52.018;5.810;2023-12-20T12:58:54;8.77;;;2.30;;
43883;SDS011;71973;52.018;5.810;2023-12-20T13:01:20;7.90;;;2.30;;
43883;SDS011;71973;52.018;5.810;2023-12-20T13:03:45;6.90;;;2.27;;
43883;SDS011;71973;52.018;5.810;2023-12-20T13:06:12;7.18;;;2.70;;
43883;SDS011;71973;52.018;5.810;2023-12-20T13:08:37;7.10;;;2.23;;
43883;SDS011;71973;52.018;5.810;2023-12-20T13:11:03;6.97;;;1.90;;
43883;SDS011;71973;52.018;5.810;2023-12-20T13:13:29;7.77;;;2.93;;
43883;SDS011;71973;52.018;5.810;2023-12-20T13:15:55;5.82;;;1.98;;
43883;SDS011;71973;52.018;5.810;2023-12-20T13:18:22;8.10;;;2.23;;
43883;SDS011;71973;52.018;5.810;2023-12-20T13:23:13;5.65;;;2.00;;
43883;SDS011;71973;52.018;5.810;2023-12-20T13:25:39;9.17;;;2.27;;
43883;SDS011;71973;52.018;5.810;2023-12-20T13:30:31;7.38;;;2.05;;
43883;SDS011;71973;52.018;5.810;2023-12-20T13:32:57;9.83;;;2.53;;
43883;SDS011;71973;52.018;5.810;2023-12-20T13:35:22;6.57;;;2.00;;
43883;SDS011;71973;52.018;5.810;2023-12-20T13:37:48;6.93;;;1.80;;
43883;SDS011;71973;52.018;5.810;2023-12-20T13:40:13;6.03;;;2.27;;
43883;SDS011;71973;52.018;5.810;2023-12-20T13:42:39;5.33;;;1.97;;
43883;SDS011;71973;52.018;5.810;2023-12-20T13:45:05;7.90;;;1.85;;
43883;SDS011;71973;52.018;5.810;2023-12-20T13:47:31;5.43;;;2.10;;
43883;SDS011;71973;52.018;5.810;2023-12-20T13:49:57;7.95;;;2.00;;
43883;SDS011;71973;52.018;5.810;2023-12-20T13:52:23;8.18;;;2.08;;
43883;SDS011;71973;52.018;5.810;2023-12-20T13:54:49;5.93;;;2.00;;
43883;SDS011;71973;52.018;5.810;2023-12-20T13:57:14;4.40;;;1.60;;
43883;SDS011;71973;52.018;5.810;2023-12-20T13:59:40;8.18;;;2.03;;
43883;SDS011;71973;52.018;5.810;2023-12-20T14:02:06;4.90;;;1.43;;
43883;SDS011;71973;52.018;5.810;2023-12-20T14:04:31;6.10;;;1.67;;
43883;SDS011;71973;52.018;5.810;2023-12-20T14:06:57;4.90;;;1.77;;
43883;SDS011;71973;52.018;5.810;2023-12-20T14:09:23;8.70;;;1.80;;
43883;SDS011;71973;52.018;5.810;2023-12-20T14:11:48;6.17;;;1.97;;
43883;SDS011;71973;52.018;5.810;2023-12-20T14:14:14;5.27;;;1.87;;
43883;SDS011;71973;52.018;5.810;2023-12-20T14:16:42;7.88;;;2.00;;
43883;SDS011;71973;52.018;5.810;2023-12-20T14:19:10;5.07;;;1.83;;
43883;SDS011;71973;52.018;5.810;2023-12-20T14:21:38;7.05;;;1.70;;
43883;SDS011;71973;52.018;5.810;2023-12-20T14:24:05;5.97;;;2.05;;
43883;SDS011;71973;52.018;5.810;2023-12-20T14:26:32;5.10;;;1.75;;
43883;SDS011;71973;52.018;5.810;2023-12-20T14:28:59;7.88;;;2.20;;
43883;SDS011;71973;52.018;5.810;2023-12-20T14:31:26;5.38;;;1.60;;
43883;SDS011;71973;52.018;5.810;2023-12-20T14:33:53;3.78;;;1.75;;
43883;SDS011;71973;52.018;5.810;2023-12-20T14:36:21;8.25;;;2.40;;
43883;SDS011;71973;52.018;5.810;2023-12-20T14:38:48;8.35;;;2.13;;
43883;SDS011;71973;52.018;5.810;2023-12-20T14:41:16;7.47;;;2.10;;
43883;SDS011;71973;52.018;5.810;2023-12-20T14:43:44;6.07;;;1.77;;
43883;SDS011;71973;52.018;5.810;2023-12-20T14:46:12;4.78;;;2.22;;
43883;SDS011;71973;52.018;5.810;2023-12-20T14:48:39;5.40;;;2.10;;
43883;SDS011;71973;52.018;5.810;2023-12-20T14:51:06;6.20;;;1.92;;
43883;SDS011;71973;52.018;5.810;2023-12-20T14:53:33;5.35;;;1.70;;
43883;SDS011;71973;52.018;5.810;2023-12-20T14:56:04;5.03;;;1.30;;
43883;SDS011;71973;52.018;5.810;2023-12-20T14:58:31;5.88;;;1.67;;